Time;durP1;ratioP1;P1;durP2;ratioP2;P2;SDS_P1;SDS_P2;PMS_P1;PMS_P2;Temp;Humidity;BMP_temperature;BMP_pressure;BME280_temperature;BME280_humidity;BME280_pressure;Samples;Min_cycle;Max_cycle;Signal;HPM_P1;HPM_P2
2023/10/17 00:01:47;;;;;;;3.37;2.20;;;;;;;;;;5078798;28;20209;-66
2023/10/17 00:04:27;;;;;;;2.77;1.97;;;;;;;;;;5078533;28;20200;-66
2023/10/17 00:06:57;;;;;;;3.50;2.27;;;;;;;;;;5077206;28;20206;-66
2023/10/17 00:09:24;;;;;;;2.70;2.07;;;;;;;;;;5080983;28;20592;-66
2023/10/17 00:12:03;;;;;;;2.60;2.40;;;;;;;;;;5076289;28;20665;-65
2023/10/17 00:14:34;;;;;;;2.63;2.40;;;;;;;;;;5082270;28;20695;-65
2023/10/17 00:17:03;;;;;;;5.53;2.33;;;;;;;;;;5077093;28;20234;-65
2023/10/17 00:19:31;;;;;;;1.73;1.67;;;;;;;;;;5083158;28;20216;-65
2023/10/17 00:21:59;;;;;;;2.27;2.17;;;;;;;;;;5079342;28;20233;-66
2023/10/17 00:24:26;;;;;;;2.70;1.83;;;;;;;;;;5082776;28;20209;-66
2023/10/17 00:26:53;;;;;;;2.57;2.07;;;;;;;;;;5079357;28;20198;-65
2023/10/17 00:29:20;;;;;;;1.80;1.63;;;;;;;;;;5078921;28;20209;-66
2023/10/17 00:31:47;;;;;;;2.03;1.80;;;;;;;;;;5078336;28;20213;-65
2023/10/17 00:34:15;;;;;;;2.20;2.10;;;;;;;;;;5078042;28;20202;-65
2023/10/17 00:36:49;;;;;;;3.23;2.03;;;;;;;;;;5079939;28;20202;-65
2023/10/17 00:39:23;;;;;;;2.20;2.10;;;;;;;;;;5084307;28;20319;-65
2023/10/17 00:42:09;;;;;;;2.20;2.03;;;;;;;;;;5084792;28;20660;-65
2023/10/17 00:44:38;;;;;;;2.27;2.17;;;;;;;;;;5083030;28;20312;-65
2023/10/17 00:47:06;;;;;;;2.33;1.83;;;;;;;;;;5084206;28;20209;-65
2023/10/17 00:49:40;;;;;;;3.53;2.23;;;;;;;;;;5086976;28;20616;-65
2023/10/17 00:52:15;;;;;;;2.73;2.30;;;;;;;;;;5086159;28;20241;-65
2023/10/17 00:54:43;;;;;;;3.07;2.67;;;;;;;;;;5087372;28;20206;-65
2023/10/17 00:57:10;;;;;;;2.70;2.50;;;;;;;;;;5087148;28;20232;-64
2023/10/17 00:59:44;;;;;;;3.13;2.57;;;;;;;;;;5087223;28;20210;-65
2023/10/17 01:02:11;;;;;;;9.00;2.20;;;;;;;;;;5086917;28;20672;-65
2023/10/17 01:04:40;;;;;;;2.30;2.20;;;;;;;;;;5087112;28;20197;-65
2023/10/17 01:07:07;;;;;;;1.83;1.73;;;;;;;;;;5086641;28;20667;-65
2023/10/17 01:09:35;;;;;;;3.87;2.43;;;;;;;;;;5087584;28;20279;-65
2023/10/17 01:12:08;;;;;;;4.23;2.07;;;;;;;;;;5087121;28;20298;-64
2023/10/17 01:14:35;;;;;;;2.37;2.17;;;;;;;;;;5086955;28;20265;-65
2023/10/17 01:17:06;;;;;;;2.30;2.13;;;;;;;;;;5086788;28;20245;-65
2023/10/17 01:19:33;;;;;;;2.30;2.20;;;;;;;;;;5087148;28;20204;-65
2023/10/17 01:22:00;;;;;;;4.60;2.53;;;;;;;;;;5086894;28;20233;-65
2023/10/17 01:24:29;;;;;;;4.40;2.07;;;;;;;;;;5086284;28;20213;-65
2023/10/17 01:26:57;;;;;;;3.70;2.13;;;;;;;;;;5086798;28;20205;-65
2023/10/17 01:29:24;;;;;;;3.93;2.40;;;;;;;;;;5087018;28;20227;-65
2023/10/17 01:31:51;;;;;;;1.60;1.60;;;;;;;;;;5087054;28;20209;-65
2023/10/17 01:34:18;;;;;;;5.27;2.60;;;;;;;;;;5086803;28;20233;-65
2023/10/17 01:36:45;;;;;;;2.63;2.20;;;;;;;;;;5086194;28;20692;-65
2023/10/17 01:39:14;;;;;;;2.10;2.00;;;;;;;;;;5086203;28;20584;-65
2023/10/17 01:41:46;;;;;;;2.03;1.93;;;;;;;;;;5082778;28;20304;-65
2023/10/17 01:44:14;;;;;;;3.70;1.80;;;;;;;;;;5086458;28;20309;-64
2023/10/17 01:46:43;;;;;;;2.17;2.07;;;;;;;;;;5086927;28;20254;-65
2023/10/17 01:49:12;;;;;;;6.57;2.27;;;;;;;;;;5087422;28;20228;-65
2023/10/17 01:51:43;;;;;;;2.50;2.07;;;;;;;;;;5091199;28;20209;-65
2023/10/17 01:54:12;;;;;;;4.40;2.70;;;;;;;;;;5090881;28;20210;-64
2023/10/17 01:56:40;;;;;;;3.00;2.70;;;;;;;;;;5090905;28;20236;-65
2023/10/17 01:59:13;;;;;;;2.40;2.20;;;;;;;;;;5090506;28;20679;-65
2023/10/17 02:01:40;;;;;;;2.87;2.40;;;;;;;;;;5090806;28;20214;-65
2023/10/17 02:04:12;;;;;;;2.53;2.40;;;;;;;;;;5090638;28;20686;-65
2023/10/17 02:06:40;;;;;;;2.50;2.40;;;;;;;;;;5090815;28;20212;-64
2023/10/17 02:09:22;;;;;;;3.20;2.33;;;;;;;;;;5090775;28;20233;-64
2023/10/17 02:11:51;;;;;;;2.30;2.20;;;;;;;;;;5090910;28;20225;-65
2023/10/17 02:14:20;;;;;;;2.83;2.53;;;;;;;;;;5088113;28;20210;-64
2023/10/17 02:16:48;;;;;;;2.17;2.07;;;;;;;;;;5090335;28;20245;-65
2023/10/17 02:19:15;;;;;;;2.80;2.60;;;;;;;;;;5081499;28;20300;-65
2023/10/17 02:21:43;;;;;;;3.20;2.67;;;;;;;;;;5089991;28;20215;-64
2023/10/17 02:24:10;;;;;;;3.00;2.80;;;;;;;;;;5089861;28;20228;-65
2023/10/17 02:26:49;;;;;;;2.60;2.40;;;;;;;;;;5088837;28;20217;-65
2023/10/17 02:29:18;;;;;;;2.37;2.27;;;;;;;;;;5090322;28;20223;-65
2023/10/17 02:31:52;;;;;;;5.67;2.77;;;;;;;;;;5090393;28;20199;-65
2023/10/17 02:34:22;;;;;;;3.80;2.10;;;;;;;;;;5090282;28;20293;-65
2023/10/17 02:36:49;;;;;;;3.30;2.60;;;;;;;;;;5090740;28;20210;-65
2023/10/17 02:39:16;;;;;;;2.80;2.60;;;;;;;;;;5090369;28;20206;-65
2023/10/17 02:41:46;;;;;;;2.53;2.33;;;;;;;;;;5089956;28;20213;-65
2023/10/17 02:44:14;;;;;;;2.30;2.20;;;;;;;;;;5090208;28;20351;-65
2023/10/17 02:46:41;;;;;;;4.57;2.47;;;;;;;;;;5089710;28;20206;-64
2023/10/17 02:49:13;;;;;;;2.80;2.20;;;;;;;;;;5090089;28;20239;-65
2023/10/17 02:51:42;;;;;;;2.57;2.37;;;;;;;;;;5090061;28;20293;-64
2023/10/17 02:54:12;;;;;;;3.03;2.47;;;;;;;;;;5089907;28;20202;-65
2023/10/17 02:56:46;;;;;;;5.03;2.37;;;;;;;;;;5089871;28;20214;-65
2023/10/17 02:59:13;;;;;;;2.53;2.43;;;;;;;;;;5089558;28;20376;-64
2023/10/17 03:01:42;;;;;;;2.93;2.27;;;;;;;;;;5088534;28;20198;-65
2023/10/17 03:04:13;;;;;;;3.00;2.37;;;;;;;;;;5089961;28;20291;-64
2023/10/17 03:06:41;;;;;;;2.57;2.40;;;;;;;;;;5089838;28;20631;-65
2023/10/17 03:09:32;;;;;;;2.33;2.23;;;;;;;;;;5089680;28;20249;-65
2023/10/17 03:12:07;;;;;;;3.27;2.40;;;;;;;;;;5088907;28;20208;-65
2023/10/17 03:14:40;;;;;;;2.43;2.30;;;;;;;;;;5070071;28;20207;-65
2023/10/17 03:17:06;;;;;;;4.67;2.60;;;;;;;;;;5085714;28;20238;-65
2023/10/17 03:19:35;;;;;;;4.10;2.43;;;;;;;;;;5089637;28;20206;-65
2023/10/17 03:22:16;;;;;;;4.87;2.13;;;;;;;;;;5085474;28;20213;-65
2023/10/17 03:24:44;;;;;;;2.57;2.37;;;;;;;;;;5089465;28;20231;-65
2023/10/17 03:27:14;;;;;;;3.13;2.90;;;;;;;;;;5089125;28;20208;-65
2023/10/17 03:29:42;;;;;;;2.40;2.20;;;;;;;;;;5089314;28;20230;-65
2023/10/17 03:32:11;;;;;;;3.53;2.37;;;;;;;;;;5088879;28;20680;-65
2023/10/17 03:34:44;;;;;;;2.33;2.13;;;;;;;;;;5089195;28;20342;-65
2023/10/17 03:37:32;;;;;;;2.30;2.10;;;;;;;;;;5089335;28;20708;-65
2023/10/17 03:40:14;;;;;;;3.90;2.67;;;;;;;;;;5088748;28;20660;-64
2023/10/17 03:42:46;;;;;;;3.97;2.53;;;;;;;;;;5089054;28;20259;-64
2023/10/17 03:45:16;;;;;;;2.97;2.70;;;;;;;;;;5088498;28;20301;-65
2023/10/17 03:47:47;;;;;;;2.87;2.17;;;;;;;;;;5088645;28;20847;-65
2023/10/17 03:50:31;;;;;;;2.90;2.63;;;;;;;;;;5088970;28;20232;-65
2023/10/17 03:53:04;;;;;;;3.53;2.63;;;;;;;;;;5087151;28;20214;-65
2023/10/17 03:55:31;;;;;;;3.40;2.83;;;;;;;;;;5088969;28;20296;-65
2023/10/17 03:57:59;;;;;;;2.60;2.40;;;;;;;;;;5088610;28;20256;-65
2023/10/17 04:00:34;;;;;;;3.83;2.77;;;;;;;;;;5088573;28;20374;-64
2023/10/17 04:03:04;;;;;;;3.03;2.47;;;;;;;;;;5088770;28;20193;-64
2023/10/17 04:05:33;;;;;;;2.80;2.63;;;;;;;;;;5084696;28;20259;-65
2023/10/17 04:08:00;;;;;;;3.33;2.70;;;;;;;;;;5084372;28;20213;-64
2023/10/17 04:10:37;;;;;;;3.27;2.90;;;;;;;;;;5088232;28;20205;-64
2023/10/17 04:13:16;;;;;;;3.17;2.60;;;;;;;;;;5088305;28;20680;-65
2023/10/17 04:15:44;;;;;;;3.40;2.97;;;;;;;;;;5088000;28;20770;-65
2023/10/17 04:18:11;;;;;;;2.87;2.70;;;;;;;;;;5088088;28;20682;-64
2023/10/17 04:20:46;;;;;;;3.73;2.97;;;;;;;;;;5087671;28;20299;-64
2023/10/17 04:23:21;;;;;;;4.93;2.40;;;;;;;;;;5088174;28;20690;-65
2023/10/17 04:25:54;;;;;;;3.00;2.33;;;;;;;;;;5077860;28;20214;-64
2023/10/17 04:28:26;;;;;;;2.10;1.90;;;;;;;;;;5088061;28;20664;-64
2023/10/17 04:30:56;;;;;;;3.20;2.33;;;;;;;;;;5087297;28;20597;-67
2023/10/17 04:33:28;;;;;;;2.37;2.27;;;;;;;;;;5086342;28;20282;-65
2023/10/17 04:36:00;;;;;;;3.00;2.80;;;;;;;;;;5088046;28;20285;-64
2023/10/17 04:38:36;;;;;;;3.43;2.80;;;;;;;;;;5087308;28;20272;-64
2023/10/17 04:41:17;;;;;;;3.90;2.43;;;;;;;;;;5087091;28;20293;-64
2023/10/17 04:43:45;;;;;;;2.20;2.10;;;;;;;;;;5079652;28;20261;-64
2023/10/17 04:46:11;;;;;;;2.60;2.40;;;;;;;;;;5078403;28;20198;-64
2023/10/17 04:48:46;;;;;;;2.77;2.20;;;;;;;;;;5086887;28;20229;-64
2023/10/17 04:51:21;;;;;;;3.60;2.40;;;;;;;;;;5086433;28;20590;-64
2023/10/17 04:54:03;;;;;;;2.30;2.10;;;;;;;;;;5087810;28;20203;-64
2023/10/17 04:56:48;;;;;;;2.40;2.30;;;;;;;;;;5081475;28;20266;-64
2023/10/17 04:59:27;;;;;;;3.23;2.27;;;;;;;;;;5088030;28;20260;-64
2023/10/17 05:02:14;;;;;;;2.30;2.10;;;;;;;;;;5086611;28;20205;-64
2023/10/17 05:05:38;;;;;;;2.27;2.13;;;;;;;;;;5087143;28;20290;-64
2023/10/17 05:08:04;;;;;;;2.00;1.93;;;;;;;;;;5086909;28;20207;-66
2023/10/17 06:17:01;;;;;;;1.63;1.63;;;;;;;;;;5066539;28;20734;-61
2023/10/17 06:19:32;;;;;;;2.03;1.80;;;;;;;;;;5086819;28;20289;-61
2023/10/17 06:24:57;;;;;;;1.93;1.87;;;;;;;;;;5087151;28;20244;-59
2023/10/17 06:30:48;;;;;;;2.07;1.80;;;;;;;;;;5083586;28;20256;-59
2023/10/17 06:33:17;;;;;;;1.97;1.77;;;;;;;;;;5086492;28;20214;-60
2023/10/17 06:35:45;;;;;;;2.00;1.90;;;;;;;;;;5080476;28;20202;-59
2023/10/17 06:38:16;;;;;;;4.60;2.03;;;;;;;;;;5085997;28;20210;-61
2023/10/17 06:40:45;;;;;;;1.80;1.67;;;;;;;;;;5090300;28;20784;-60
2023/10/17 06:43:27;;;;;;;2.07;1.87;;;;;;;;;;5090232;28;20226;-59
2023/10/17 06:45:55;;;;;;;1.80;1.80;;;;;;;;;;5088857;28;20221;-59
2023/10/17 06:48:31;;;;;;;2.60;1.80;;;;;;;;;;5089180;28;20210;-64
2023/10/17 06:53:52;;;;;;;1.67;1.57;;;;;;;;;;5089249;28;20266;-64
2023/10/17 06:56:19;;;;;;;1.67;1.60;;;;;;;;;;5088907;28;20309;-64
2023/10/17 06:58:48;;;;;;;1.90;1.80;;;;;;;;;;5089721;28;20225;-63
2023/10/17 07:01:27;;;;;;;2.17;1.50;;;;;;;;;;5081208;28;20198;-63
2023/10/17 07:03:55;;;;;;;3.30;2.00;;;;;;;;;;5083440;28;20736;-63
2023/10/17 07:06:24;;;;;;;2.17;1.30;;;;;;;;;;5070973;28;20680;-61
2023/10/17 07:08:52;;;;;;;2.67;1.60;;;;;;;;;;5089232;28;20210;-64
2023/10/17 07:11:29;;;;;;;1.70;1.60;;;;;;;;;;5088834;28;20297;-62
2023/10/17 07:14:11;;;;;;;2.20;2.10;;;;;;;;;;5086007;28;20271;-61
2023/10/17 07:16:45;;;;;;;1.93;1.93;;;;;;;;;;5088525;28;20256;-61
2023/10/17 07:22:06;;;;;;;6.03;2.33;;;;;;;;;;5089164;28;20343;-63
2023/10/17 07:24:36;;;;;;;2.43;2.20;;;;;;;;;;5089931;28;20221;-63
2023/10/17 07:27:04;;;;;;;2.23;2.03;;;;;;;;;;5088459;28;20210;-63
2023/10/17 07:29:36;;;;;;;2.53;2.30;;;;;;;;;;5089309;28;20255;-63
2023/10/17 07:32:09;;;;;;;2.20;2.00;;;;;;;;;;5087626;28;20210;-63
2023/10/17 07:34:36;;;;;;;1.80;1.70;;;;;;;;;;5089494;28;20208;-63
2023/10/17 07:37:14;;;;;;;2.13;2.03;;;;;;;;;;5089060;28;20199;-63
2023/10/17 07:39:42;;;;;;;1.53;1.43;;;;;;;;;;5089444;28;20210;-64
2023/10/17 07:42:14;;;;;;;2.30;2.10;;;;;;;;;;5089143;28;20256;-63
2023/10/17 07:44:42;;;;;;;4.17;2.47;;;;;;;;;;5089522;28;20229;-62
2023/10/17 07:47:19;;;;;;;1.90;1.73;;;;;;;;;;5088671;28;20213;-63
2023/10/17 07:49:48;;;;;;;2.30;1.90;;;;;;;;;;5088617;28;20220;-64
2023/10/17 07:52:16;;;;;;;3.00;2.50;;;;;;;;;;5088907;28;20213;-62
2023/10/17 07:54:46;;;;;;;2.13;2.00;;;;;;;;;;5089144;28;20584;-62
2023/10/17 07:57:22;;;;;;;5.30;1.93;;;;;;;;;;5088680;28;20209;-64
2023/10/17 07:59:51;;;;;;;3.03;1.63;;;;;;;;;;5084357;28;20201;-62
2023/10/17 08:02:20;;;;;;;3.53;2.40;;;;;;;;;;5088774;28;20313;-62
2023/10/17 08:04:50;;;;;;;2.20;1.90;;;;;;;;;;5073852;28;20212;-63
2023/10/17 08:07:20;;;;;;;3.00;1.80;;;;;;;;;;5088741;28;20218;-63
2023/10/17 08:09:56;;;;;;;1.60;1.60;;;;;;;;;;5088764;28;20319;-63
2023/10/17 08:12:23;;;;;;;2.30;1.97;;;;;;;;;;5088771;28;20198;-62
2023/10/17 08:14:57;;;;;;;1.20;1.20;;;;;;;;;;5088843;28;20233;-63
2023/10/17 08:17:28;;;;;;;2.80;2.20;;;;;;;;;;5081875;28;20238;-63
2023/10/17 08:20:45;;;;;;;3.03;1.80;;;;;;;;;;5068384;28;20301;-63
2023/10/17 08:23:06;;;;;;;4.60;1.80;;;;;;;;;;5077224;28;20279;-63
2023/10/17 08:25:40;;;;;;;3.03;1.83;;;;;;;;;;5088667;28;20210;-62
2023/10/17 08:28:31;;;;;;;2.07;1.90;;;;;;;;;;5088519;28;20386;-63
2023/10/17 08:30:59;;;;;;;1.87;1.77;;;;;;;;;;5087974;28;20226;-64
2023/10/17 08:33:36;;;;;;;2.80;1.70;;;;;;;;;;5088078;28;20198;-64
2023/10/17 08:36:03;;;;;;;3.47;1.93;;;;;;;;;;5088434;28;20209;-67
2023/10/17 08:38:32;;;;;;;2.20;1.80;;;;;;;;;;5088227;28;20236;-63
2023/10/17 08:41:05;;;;;;;2.43;1.43;;;;;;;;;;5088007;28;20267;-63
2023/10/17 08:43:32;;;;;;;1.60;1.50;;;;;;;;;;5087966;28;20325;-66
2023/10/17 08:46:00;;;;;;;1.10;1.00;;;;;;;;;;5088100;28;20213;-66
2023/10/17 08:48:28;;;;;;;1.27;1.27;;;;;;;;;;5087444;28;20277;-66
2023/10/17 08:50:56;;;;;;;2.03;1.73;;;;;;;;;;5087881;28;20256;-66
2023/10/17 08:53:24;;;;;;;2.83;1.50;;;;;;;;;;5087532;28;20551;-67
2023/10/17 08:55:52;;;;;;;1.60;1.50;;;;;;;;;;5087800;28;20202;-61
2023/10/17 08:58:24;;;;;;;3.17;1.83;;;;;;;;;;5087201;28;20251;-66
2023/10/17 09:00:56;;;;;;;2.70;1.60;;;;;;;;;;5086963;28;20527;-65
2023/10/17 09:03:28;;;;;;;1.80;1.70;;;;;;;;;;5087379;28;20753;-68
2023/10/17 09:06:28;;;;;;;1.27;1.27;;;;;;;;;;5087184;28;20208;-64
2023/10/17 09:08:56;;;;;;;2.97;1.67;;;;;;;;;;5087728;28;20456;-66
2023/10/17 09:11:30;;;;;;;1.03;1.03;;;;;;;;;;5086826;28;20225;-65
2023/10/17 09:14:16;;;;;;;2.30;1.60;;;;;;;;;;5087391;28;20217;-66
2023/10/17 09:16:50;;;;;;;1.40;1.40;;;;;;;;;;5086322;28;20238;-64
2023/10/17 09:19:20;;;;;;;2.77;1.73;;;;;;;;;;5079398;28;20209;-65
2023/10/17 09:21:49;;;;;;;1.93;1.23;;;;;;;;;;5085434;28;20210;-64
2023/10/17 09:24:32;;;;;;;1.93;1.83;;;;;;;;;;5075515;28;20211;-65
2023/10/17 09:26:59;;;;;;;1.70;1.70;;;;;;;;;;5076094;28;20202;-66
2023/10/17 09:29:27;;;;;;;1.63;1.47;;;;;;;;;;5084995;28;20210;-65
2023/10/17 09:31:54;;;;;;;2.10;2.00;;;;;;;;;;5085183;28;20404;-64
2023/10/17 09:34:25;;;;;;;1.30;1.20;;;;;;;;;;5085103;28;20520;-65
2023/10/17 09:36:55;;;;;;;4.43;1.10;;;;;;;;;;5085290;28;20242;-65
2023/10/17 09:39:27;;;;;;;1.27;1.17;;;;;;;;;;5084729;28;20214;-65
2023/10/17 09:41:54;;;;;;;1.40;1.30;;;;;;;;;;5082566;28;20210;-65
2023/10/17 09:44:21;;;;;;;2.30;1.50;;;;;;;;;;5085031;28;20254;-64
2023/10/17 09:46:50;;;;;;;1.63;1.57;;;;;;;;;;5085034;28;20202;-65
2023/10/17 09:49:19;;;;;;;3.53;1.83;;;;;;;;;;5085296;28;20214;-65
2023/10/17 09:51:47;;;;;;;2.00;1.60;;;;;;;;;;5067748;28;20207;-65
2023/10/17 09:54:17;;;;;;;2.30;1.70;;;;;;;;;;5083838;28;20210;-64
2023/10/17 09:56:44;;;;;;;2.03;1.57;;;;;;;;;;5084484;28;20213;-64
2023/10/17 09:59:13;;;;;;;1.93;1.40;;;;;;;;;;5083167;28;20218;-65
2023/10/17 10:01:40;;;;;;;1.40;1.27;;;;;;;;;;5084288;28;20198;-66
2023/10/17 10:04:09;;;;;;;2.30;1.50;;;;;;;;;;5086834;28;20214;-70
2023/10/17 10:06:36;;;;;;;2.03;1.63;;;;;;;;;;5086994;28;20210;-64
2023/10/17 10:09:29;;;;;;;1.53;1.47;;;;;;;;;;5086661;28;20965;-67
2023/10/17 10:11:58;;;;;;;1.40;1.40;;;;;;;;;;5089887;28;20213;-62
2023/10/17 10:14:44;;;;;;;2.83;1.60;;;;;;;;;;5090943;28;20206;-65
2023/10/17 10:17:11;;;;;;;1.40;1.40;;;;;;;;;;5090694;28;20263;-65
2023/10/17 10:19:57;;;;;;;2.87;1.50;;;;;;;;;;5090977;28;20747;-64
2023/10/17 10:22:24;;;;;;;1.70;1.60;;;;;;;;;;5090399;28;20574;-68
2023/10/17 10:25:05;;;;;;;1.17;0.90;;;;;;;;;;5090624;28;20688;-65
2023/10/17 10:27:32;;;;;;;1.70;1.60;;;;;;;;;;5090637;28;20264;-66
2023/10/17 10:30:17;;;;;;;1.60;1.50;;;;;;;;;;5089968;28;20229;-63
2023/10/17 10:32:44;;;;;;;1.70;1.60;;;;;;;;;;5090667;28;20210;-63
2023/10/17 10:35:12;;;;;;;1.80;1.80;;;;;;;;;;5089805;28;20206;-62
2023/10/17 10:37:53;;;;;;;2.10;2.00;;;;;;;;;;5090697;28;20241;-64
2023/10/17 10:40:26;;;;;;;1.27;1.17;;;;;;;;;;5088502;28;20206;-61
2023/10/17 10:42:54;;;;;;;0.93;0.93;;;;;;;;;;5090058;28;20241;-65
2023/10/17 10:45:42;;;;;;;1.73;1.63;;;;;;;;;;5083126;28;20937;-63
2023/10/17 10:48:15;;;;;;;1.70;1.60;;;;;;;;;;5068692;28;20203;-66
2023/10/17 10:50:43;;;;;;;2.10;1.33;;;;;;;;;;5089393;28;20326;-64
2023/10/17 10:53:24;;;;;;;1.67;1.67;;;;;;;;;;5089008;28;20263;-63
2023/10/17 10:56:00;;;;;;;1.20;1.20;;;;;;;;;;5089599;28;20210;-63
2023/10/17 10:58:28;;;;;;;2.47;1.20;;;;;;;;;;5088909;28;20238;-64
2023/10/17 11:00:56;;;;;;;1.37;1.37;;;;;;;;;;5088547;28;20206;-63
2023/10/17 11:03:23;;;;;;;1.80;1.70;;;;;;;;;;5089110;28;20923;-63
2023/10/17 11:05:54;;;;;;;1.67;1.43;;;;;;;;;;5088528;28;20203;-63
2023/10/17 11:08:21;;;;;;;3.53;1.50;;;;;;;;;;5079217;28;20221;-63
2023/10/17 11:10:48;;;;;;;1.10;1.10;;;;;;;;;;5077490;28;20249;-64
2023/10/17 11:13:16;;;;;;;2.20;1.50;;;;;;;;;;5088253;28;20348;-63
2023/10/17 11:15:44;;;;;;;3.27;1.57;;;;;;;;;;5080453;28;20246;-63
2023/10/17 11:18:12;;;;;;;2.77;1.40;;;;;;;;;;5084322;28;20198;-63
2023/10/17 11:20:41;;;;;;;3.37;1.70;;;;;;;;;;5082934;28;20203;-63
2023/10/17 11:23:09;;;;;;;1.70;1.53;;;;;;;;;;5084236;28;20217;-64
2023/10/17 11:25:37;;;;;;;1.40;1.30;;;;;;;;;;5085552;28;20203;-64
2023/10/17 11:28:07;;;;;;;2.43;1.40;;;;;;;;;;5083929;28;20680;-63
2023/10/17 11:30:40;;;;;;;1.53;1.47;;;;;;;;;;5088403;28;20665;-63
2023/10/17 11:33:10;;;;;;;1.83;1.60;;;;;;;;;;5083539;28;20304;-64
2023/10/17 11:35:37;;;;;;;1.53;1.47;;;;;;;;;;5077559;28;20737;-63
2023/10/17 11:38:07;;;;;;;1.57;1.53;;;;;;;;;;5090469;28;20206;-66
2023/10/17 11:40:39;;;;;;;1.27;1.27;;;;;;;;;;5078146;28;20541;-67
2023/10/17 11:43:16;;;;;;;1.80;1.63;;;;;;;;;;5087957;28;20279;-67
2023/10/17 11:45:46;;;;;;;3.37;1.20;;;;;;;;;;5087739;28;20205;-63
2023/10/17 11:48:30;;;;;;;2.97;1.40;;;;;;;;;;5076815;28;20230;-63
2023/10/17 11:51:16;;;;;;;3.37;1.77;;;;;;;;;;5070734;28;20232;-63
2023/10/17 11:54:04;;;;;;;1.37;1.13;;;;;;;;;;5081429;28;20207;-63
2023/10/17 11:56:32;;;;;;;1.43;1.43;;;;;;;;;;5086128;28;20206;-63
2023/10/17 11:59:01;;;;;;;2.43;1.40;;;;;;;;;;5087490;28;20211;-63
2023/10/17 12:01:29;;;;;;;1.70;1.30;;;;;;;;;;5087984;28;20198;-62
2023/10/17 12:03:58;;;;;;;4.27;1.40;;;;;;;;;;5088128;28;20198;-63
2023/10/17 12:06:27;;;;;;;1.53;1.43;;;;;;;;;;5082796;28;20201;-62
2023/10/17 12:08:54;;;;;;;1.70;1.60;;;;;;;;;;5080579;28;20202;-63
2023/10/17 12:11:24;;;;;;;1.27;1.27;;;;;;;;;;5087654;28;20593;-63
2023/10/17 12:13:51;;;;;;;1.77;1.57;;;;;;;;;;5087309;28;20217;-62
2023/10/17 12:16:23;;;;;;;3.73;1.60;;;;;;;;;;5087763;28;20242;-62
2023/10/17 12:18:52;;;;;;;2.13;1.53;;;;;;;;;;5087107;28;20293;-62
2023/10/17 12:21:19;;;;;;;1.53;1.53;;;;;;;;;;5080679;28;20295;-63
2023/10/17 12:23:46;;;;;;;1.63;1.53;;;;;;;;;;5080167;28;20974;-63
2023/10/17 12:26:19;;;;;;;1.60;1.43;;;;;;;;;;5083105;28;20213;-63
2023/10/17 12:28:46;;;;;;;2.13;1.00;;;;;;;;;;5079978;28;20215;-62
2023/10/17 12:31:16;;;;;;;2.50;1.13;;;;;;;;;;5086397;28;20317;-63
2023/10/17 12:33:43;;;;;;;1.23;1.20;;;;;;;;;;5085863;28;20274;-61
2023/10/17 12:36:13;;;;;;;1.53;1.40;;;;;;;;;;5071047;28;20210;-62
2023/10/17 12:38:40;;;;;;;1.07;1.07;;;;;;;;;;5071947;28;20213;-62
2023/10/17 12:41:12;;;;;;;1.70;1.60;;;;;;;;;;5083855;28;20240;-62
2023/10/17 12:43:39;;;;;;;1.33;1.20;;;;;;;;;;5067223;28;20222;-62
2023/10/17 12:46:07;;;;;;;1.03;1.03;;;;;;;;;;5070273;28;20593;-62
2023/10/17 12:48:34;;;;;;;1.23;1.23;;;;;;;;;;5083816;28;20279;-61
2023/10/17 12:51:11;;;;;;;1.17;1.17;;;;;;;;;;5085446;28;20593;-61
2023/10/17 12:53:39;;;;;;;0.93;0.93;;;;;;;;;;5080656;28;20203;-63
2023/10/17 12:56:07;;;;;;;4.27;1.53;;;;;;;;;;5063440;28;20215;-62
2023/10/17 12:58:36;;;;;;;1.23;1.13;;;;;;;;;;5078249;28;20214;-62
2023/10/17 13:01:04;;;;;;;1.37;0.93;;;;;;;;;;5082358;28;20688;-61
2023/10/17 13:03:34;;;;;;;1.20;1.20;;;;;;;;;;5084738;28;20972;-62
2023/10/17 13:06:01;;;;;;;1.07;0.97;;;;;;;;;;5086101;28;20202;-62
2023/10/17 13:08:28;;;;;;;1.37;1.13;;;;;;;;;;5066967;28;20594;-62
2023/10/17 13:10:57;;;;;;;3.70;1.13;;;;;;;;;;5085654;28;20225;-62
2023/10/17 13:13:24;;;;;;;1.57;1.40;;;;;;;;;;5073425;28;20615;-63
2023/10/17 13:15:51;;;;;;;1.40;1.30;;;;;;;;;;5065679;28;20717;-63
2023/10/17 13:18:19;;;;;;;2.10;1.80;;;;;;;;;;5067933;28;20268;-64
2023/10/17 13:20:48;;;;;;;1.77;1.67;;;;;;;;;;5086200;28;20245;-63
2023/10/17 13:23:16;;;;;;;2.10;1.80;;;;;;;;;;5084106;28;20214;-64
2023/10/17 13:25:43;;;;;;;3.53;2.53;;;;;;;;;;5077433;28;20210;-63
2023/10/17 13:28:12;;;;;;;2.50;1.90;;;;;;;;;;5084809;28;20210;-61
2023/10/17 13:30:39;;;;;;;2.30;2.20;;;;;;;;;;5084419;28;20217;-62
2023/10/17 13:33:07;;;;;;;2.00;1.20;;;;;;;;;;5080152;28;20202;-62
2023/10/17 13:35:37;;;;;;;2.53;2.33;;;;;;;;;;5067965;28;20211;-62
2023/10/17 13:38:04;;;;;;;2.57;1.63;;;;;;;;;;5073089;28;20297;-62
2023/10/17 13:40:32;;;;;;;2.13;1.70;;;;;;;;;;5075366;28;20261;-63
2023/10/17 13:43:01;;;;;;;2.17;2.00;;;;;;;;;;5064836;28;20359;-62
2023/10/17 13:45:29;;;;;;;1.47;1.37;;;;;;;;;;5078954;28;20234;-62
2023/10/17 13:47:56;;;;;;;2.30;1.57;;;;;;;;;;5083610;28;20220;-63
2023/10/17 13:50:24;;;;;;;1.93;1.83;;;;;;;;;;5084152;28;20207;-62
2023/10/17 13:52:52;;;;;;;1.37;1.37;;;;;;;;;;5082917;28;20236;-62
2023/10/17 13:55:25;;;;;;;1.73;1.63;;;;;;;;;;5074364;28;20207;-63
2023/10/17 13:57:55;;;;;;;2.97;1.90;;;;;;;;;;5070289;28;20210;-63
2023/10/17 14:00:22;;;;;;;1.97;1.70;;;;;;;;;;5067879;28;20215;-63
2023/10/17 14:02:51;;;;;;;2.20;2.00;;;;;;;;;;5086878;28;20233;-61
2023/10/17 14:05:19;;;;;;;1.20;1.10;;;;;;;;;;5068903;28;20214;-61
2023/10/17 14:07:48;;;;;;;1.80;1.10;;;;;;;;;;5082519;28;20326;-62
2023/10/17 14:10:15;;;;;;;2.27;1.20;;;;;;;;;;5072932;28;20632;-62
2023/10/17 14:12:46;;;;;;;1.03;1.03;;;;;;;;;;5081324;28;20314;-65
2023/10/17 14:15:14;;;;;;;1.40;1.40;;;;;;;;;;5078348;28;20329;-61
2023/10/17 14:17:45;;;;;;;2.23;2.13;;;;;;;;;;5077897;28;20329;-62
2023/10/17 14:20:28;;;;;;;1.40;1.33;;;;;;;;;;5080257;28;20678;-62
2023/10/17 14:23:08;;;;;;;5.77;2.00;;;;;;;;;;5074558;28;20256;-62
2023/10/17 14:28:21;;;;;;;2.33;2.13;;;;;;;;;;5087790;28;20594;-62
2023/10/17 14:30:48;;;;;;;5.70;3.60;;;;;;;;;;5087273;28;20203;-61
2023/10/17 14:33:15;;;;;;;6.83;4.77;;;;;;;;;;5086864;28;20725;-62
2023/10/17 14:35:44;;;;;;;14.27;8.37;;;;;;;;;;5087844;28;20218;-61
2023/10/17 14:38:11;;;;;;;1.70;1.60;;;;;;;;;;5087561;28;20912;-61
2023/10/17 14:40:38;;;;;;;4.90;2.73;;;;;;;;;;5087757;28;20280;-62
2023/10/17 14:43:09;;;;;;;2.13;1.80;;;;;;;;;;5086583;28;20215;-62
2023/10/17 14:45:39;;;;;;;13.17;6.70;;;;;;;;;;5086953;28;20238;-62
2023/10/17 14:48:06;;;;;;;16.37;6.70;;;;;;;;;;5086994;28;20206;-62
2023/10/17 14:50:33;;;;;;;14.03;5.73;;;;;;;;;;5087354;28;20225;-60
2023/10/17 14:53:02;;;;;;;18.23;7.73;;;;;;;;;;5086038;28;20897;-61
2023/10/17 14:55:29;;;;;;;30.23;11.67;;;;;;;;;;5084840;28;20221;-61
2023/10/17 14:58:00;;;;;;;15.33;7.27;;;;;;;;;;5085428;28;20779;-61
2023/10/17 15:00:28;;;;;;;19.57;9.30;;;;;;;;;;5085438;28;20751;-64
2023/10/17 15:02:55;;;;;;;2.70;2.00;;;;;;;;;;5087923;28;20236;-61
2023/10/17 15:05:24;;;;;;;2.90;1.80;;;;;;;;;;5083859;28;20210;-65
2023/10/17 15:07:51;;;;;;;2.00;1.50;;;;;;;;;;5075585;28;20222;-63
2023/10/17 15:10:20;;;;;;;2.13;1.73;;;;;;;;;;5081590;28;20213;-63
2023/10/17 15:12:47;;;;;;;1.20;1.10;;;;;;;;;;5076243;28;20233;-64
2023/10/17 15:15:14;;;;;;;0.90;0.90;;;;;;;;;;5074066;28;20210;-63
2023/10/17 15:17:42;;;;;;;2.63;1.17;;;;;;;;;;5078144;28;20293;-61
2023/10/17 15:20:12;;;;;;;0.83;0.83;;;;;;;;;;5067514;28;20226;-61
2023/10/17 15:22:39;;;;;;;3.50;1.10;;;;;;;;;;5072401;28;20293;-61
2023/10/17 15:25:07;;;;;;;1.00;0.87;;;;;;;;;;5087467;28;20206;-62
2023/10/17 15:27:35;;;;;;;1.07;1.07;;;;;;;;;;5087138;28;20211;-62
2023/10/17 15:30:03;;;;;;;1.77;1.10;;;;;;;;;;5078559;28;20198;-64
2023/10/17 15:32:31;;;;;;;1.00;1.00;;;;;;;;;;5085959;28;20218;-62
2023/10/17 15:34:58;;;;;;;1.10;1.10;;;;;;;;;;5067460;28;20880;-61
2023/10/17 15:37:25;;;;;;;2.10;1.10;;;;;;;;;;5076258;28;20210;-62
2023/10/17 15:39:53;;;;;;;1.03;1.03;;;;;;;;;;5087962;28;20672;-62
2023/10/17 15:42:20;;;;;;;0.80;0.80;;;;;;;;;;5087567;28;20234;-62
2023/10/17 15:44:48;;;;;;;0.87;0.87;;;;;;;;;;5085910;28;20981;-63
2023/10/17 15:47:16;;;;;;;1.27;1.07;;;;;;;;;;5069063;28;20635;-64
2023/10/17 15:49:44;;;;;;;2.00;1.07;;;;;;;;;;5088262;28;20233;-63
2023/10/17 15:52:11;;;;;;;2.03;0.80;;;;;;;;;;5087940;28;20300;-63
2023/10/17 15:54:38;;;;;;;1.07;0.93;;;;;;;;;;5088218;28;20252;-63
2023/10/17 15:57:06;;;;;;;1.03;0.93;;;;;;;;;;5076242;28;20781;-63
2023/10/17 15:59:33;;;;;;;1.80;1.17;;;;;;;;;;5068447;28;20214;-65
2023/10/17 16:02:01;;;;;;;2.10;1.07;;;;;;;;;;5082815;28;20569;-64
2023/10/17 16:04:31;;;;;;;1.00;1.00;;;;;;;;;;5087307;28;20202;-63
2023/10/17 16:06:58;;;;;;;1.00;0.93;;;;;;;;;;5075815;28;20613;-62
2023/10/17 16:09:27;;;;;;;1.93;1.07;;;;;;;;;;5082908;28;20214;-64
2023/10/17 16:11:55;;;;;;;5.57;1.30;;;;;;;;;;5083493;28;20770;-63
2023/10/17 16:14:22;;;;;;;1.43;1.00;;;;;;;;;;5085915;28;20202;-64
2023/10/17 16:16:49;;;;;;;1.00;1.00;;;;;;;;;;5085229;28;20237;-64
2023/10/17 16:19:18;;;;;;;0.90;0.90;;;;;;;;;;5085515;28;20206;-68
2023/10/17 16:21:46;;;;;;;1.33;1.00;;;;;;;;;;5086743;28;20218;-64
2023/10/17 16:24:13;;;;;;;2.27;1.40;;;;;;;;;;5076630;28;20217;-63
2023/10/17 16:26:40;;;;;;;0.70;0.70;;;;;;;;;;5086812;28;20218;-63